createdAt,value
2017-03-17T00:00:42.233Z,1004.09
2017-03-17T00:01:42.248Z,1004.07
2017-03-17T00:02:42.265Z,1004.05
2017-03-17T00:03:42.283Z,1004.01
2017-03-17T00:04:42.297Z,1004.03
2017-03-17T00:05:42.314Z,1004.01
2017-03-17T00:06:42.330Z,1003.99
2017-03-17T00:07:42.345Z,1003.92
2017-03-17T00:08:42.362Z,1003.92
2017-03-17T00:09:42.377Z,1003.89
2017-03-17T00:10:42.395Z,1003.86
2017-03-17T00:11:42.410Z,1003.85
2017-03-17T00:12:42.427Z,1003.84
2017-03-17T00:13:42.442Z,1003.83
2017-03-17T00:14:42.460Z,1003.82
2017-03-17T00:15:42.475Z,1003.81
2017-03-17T00:16:42.492Z,1003.76
2017-03-17T00:17:42.509Z,1003.78
2017-03-17T00:18:42.527Z,1003.75
2017-03-17T00:19:42.539Z,1003.69
2017-03-17T00:20:42.557Z,1003.68
2017-03-17T00:21:42.574Z,1003.67
2017-03-17T00:22:42.588Z,1003.67
2017-03-17T00:23:42.604Z,1003.7
2017-03-17T00:24:42.620Z,1003.67
2017-03-17T00:25:42.638Z,1003.71
2017-03-17T00:26:42.652Z,1003.68
2017-03-17T00:27:42.669Z,1003.68
2017-03-17T00:28:42.684Z,1003.63
2017-03-17T00:29:42.702Z,1003.64
2017-03-17T00:30:42.718Z,1003.59
2017-03-17T00:31:42.734Z,1003.59
2017-03-17T00:32:42.749Z,1003.57
2017-03-17T00:33:42.766Z,1003.6
2017-03-17T00:34:42.787Z,1003.58
2017-03-17T00:35:42.801Z,1003.49
2017-03-17T00:36:42.816Z,1003.54
2017-03-17T00:37:42.829Z,1003.47
2017-03-17T00:38:42.851Z,1003.45
2017-03-17T00:39:42.863Z,1003.45
2017-03-17T00:40:42.878Z,1003.42
2017-03-17T00:41:42.893Z,1003.42
2017-03-17T00:42:42.908Z,1003.34
2017-03-17T00:43:42.925Z,1003.32
2017-03-17T00:44:42.941Z,1003.27
2017-03-17T00:45:42.959Z,1003.22
2017-03-17T00:46:42.974Z,1003.25
2017-03-17T00:47:42.990Z,1003.22
2017-03-17T00:48:43.005Z,1003.22
2017-03-17T00:49:43.021Z,1003.18
2017-03-17T00:50:43.038Z,1003.19
2017-03-17T00:51:43.054Z,1003.16
2017-03-17T00:52:43.070Z,1003.15
2017-03-17T00:53:43.085Z,1003.12
2017-03-17T00:54:43.105Z,1003.18
2017-03-17T00:55:43.118Z,1003.13
2017-03-17T00:56:43.134Z,1003.12
2017-03-17T00:57:43.150Z,1003.13
2017-03-17T00:58:43.166Z,1003.12
2017-03-17T00:59:43.181Z,1003.11
2017-03-17T01:00:43.197Z,1003.11
2017-03-17T01:01:43.215Z,1003.09
2017-03-17T01:02:43.229Z,1003.09
2017-03-17T01:03:43.246Z,1003.07
2017-03-17T01:04:43.260Z,1003.08
2017-03-17T01:05:43.278Z,1003.07
2017-03-17T01:06:43.292Z,1003.04
2017-03-17T01:07:43.309Z,1003.07
2017-03-17T01:08:43.326Z,1003.08
2017-03-17T01:09:43.340Z,1003.02
2017-03-17T01:10:43.355Z,1003
2017-03-17T01:11:43.396Z,1003
2017-03-17T01:12:43.388Z,1002.96
2017-03-17T01:13:43.429Z,1002.97
2017-03-17T01:14:43.418Z,1002.97
2017-03-17T01:15:43.434Z,1002.91
2017-03-17T01:16:43.473Z,1002.89
2017-03-17T01:17:43.466Z,1002.91
2017-03-17T01:18:43.481Z,1002.85
2017-03-17T01:19:43.499Z,1002.81
2017-03-17T01:20:43.514Z,1002.79
2017-03-17T01:21:43.529Z,1002.77
2017-03-17T01:22:43.547Z,1002.8
2017-03-17T01:23:43.562Z,1002.76
2017-03-17T01:24:43.576Z,1002.75
2017-03-17T01:25:43.593Z,1002.72
2017-03-17T01:26:43.608Z,1002.67
2017-03-17T01:27:43.624Z,1002.67
2017-03-17T01:28:43.641Z,1002.67
2017-03-17T01:29:43.656Z,1002.63
2017-03-17T01:30:43.671Z,1002.61
2017-03-17T01:31:43.687Z,1002.58
2017-03-17T01:32:43.703Z,1002.58
2017-03-17T01:33:43.719Z,1002.62
2017-03-17T01:34:43.735Z,1002.63
2017-03-17T01:35:43.749Z,1002.62
2017-03-17T01:36:43.765Z,1002.63
2017-03-17T01:37:43.782Z,1002.58
2017-03-17T01:38:43.796Z,1002.53
2017-03-17T01:39:43.811Z,1002.57
2017-03-17T01:40:43.828Z,1002.5
2017-03-17T01:41:43.843Z,1002.52
2017-03-17T01:42:43.860Z,1002.5
2017-03-17T01:43:43.874Z,1002.49
2017-03-17T01:44:43.892Z,1002.43
2017-03-17T01:45:43.907Z,1002.4
2017-03-17T01:46:43.921Z,1002.36
2017-03-17T01:47:43.938Z,1002.29
2017-03-17T01:48:43.953Z,1002.23
2017-03-17T01:49:43.971Z,1002.24
2017-03-17T01:50:43.983Z,1002.24
2017-03-17T01:51:43.999Z,1002.22
2017-03-17T01:52:44.015Z,1002.17
2017-03-17T01:53:44.032Z,1002.2
2017-03-17T01:54:44.047Z,1002.17
2017-03-17T01:55:44.062Z,1002.2
2017-03-17T01:56:44.078Z,1002.16
2017-03-17T01:57:44.095Z,1002.15
2017-03-17T01:58:44.108Z,1002.12
2017-03-17T01:59:44.127Z,1002.13
2017-03-17T02:00:44.140Z,1002.08
2017-03-17T02:01:44.156Z,1002.08
2017-03-17T02:02:44.172Z,1002.07
2017-03-17T02:03:44.187Z,1002.08
2017-03-17T02:04:44.201Z,1002.04
2017-03-17T02:05:44.217Z,1002.04
2017-03-17T02:06:44.235Z,1002.08
2017-03-17T02:07:44.250Z,1002.03
2017-03-17T02:08:44.263Z,1002.04
2017-03-17T02:09:44.279Z,1002.04
2017-03-17T02:10:44.296Z,1001.97
2017-03-17T02:11:44.311Z,1001.96
2017-03-17T02:12:44.325Z,1001.96
2017-03-17T02:13:44.342Z,1001.95
2017-03-17T02:14:44.357Z,1001.92
2017-03-17T02:15:44.373Z,1001.89
2017-03-17T02:16:44.388Z,1001.88
2017-03-17T02:17:44.403Z,1001.88
2017-03-17T02:18:44.420Z,1001.86
2017-03-17T02:19:44.433Z,1001.88
2017-03-17T02:20:44.454Z,1001.89
2017-03-17T02:21:44.465Z,1001.85
2017-03-17T02:22:44.480Z,1001.86
2017-03-17T02:23:44.495Z,1001.86
2017-03-17T02:24:44.514Z,1001.83
2017-03-17T02:25:44.527Z,1001.81
2017-03-17T02:26:44.543Z,1001.78
2017-03-17T02:27:44.559Z,1001.76
2017-03-17T02:28:44.574Z,1001.75
2017-03-17T02:29:44.592Z,1001.69
2017-03-17T02:30:44.606Z,1001.68
2017-03-17T02:31:44.622Z,1001.69
2017-03-17T02:32:44.636Z,1001.65
2017-03-17T02:33:44.652Z,1001.64
2017-03-17T02:34:44.667Z,1001.63
2017-03-17T02:35:44.681Z,1001.62
2017-03-17T02:36:44.699Z,1001.62
2017-03-17T02:37:44.711Z,1001.61
2017-03-17T02:38:44.728Z,1001.64
2017-03-17T02:39:44.743Z,1001.63
2017-03-17T02:40:44.760Z,1001.59
2017-03-17T02:41:44.773Z,1001.56
2017-03-17T02:42:44.789Z,1001.58
2017-03-17T02:43:44.805Z,1001.5
2017-03-17T02:44:44.820Z,1001.53
2017-03-17T02:45:44.835Z,1001.49
2017-03-17T02:46:44.850Z,1001.46
2017-03-17T02:47:44.866Z,1001.44
2017-03-17T02:48:44.880Z,1001.46
2017-03-17T02:49:44.896Z,1001.48
2017-03-17T02:50:44.913Z,1001.44
2017-03-17T02:51:44.927Z,1001.45
2017-03-17T02:52:44.941Z,1001.39
2017-03-17T02:53:44.956Z,1001.42
2017-03-17T02:54:44.972Z,1001.44
2017-03-17T02:55:44.988Z,1001.47
2017-03-17T02:56:45.001Z,1001.43
2017-03-17T02:57:45.019Z,1001.47
2017-03-17T02:58:45.032Z,1001.49
2017-03-17T02:59:45.046Z,1001.44
2017-03-17T03:00:45.061Z,1001.46
2017-03-17T03:01:45.078Z,1001.46
2017-03-17T03:02:45.093Z,1001.43
2017-03-17T03:03:45.110Z,1001.41
2017-03-17T03:04:45.121Z,1001.37
2017-03-17T03:05:45.140Z,1001.43
2017-03-17T03:06:45.154Z,1001.37
2017-03-17T03:07:45.170Z,1001.39
2017-03-17T03:08:45.185Z,1001.37
2017-03-17T03:09:45.200Z,1001.38
2017-03-17T03:10:45.214Z,1001.37
2017-03-17T03:11:45.230Z,1001.38
2017-03-17T03:12:45.244Z,1001.39
2017-03-17T03:13:45.262Z,1001.38
2017-03-17T03:14:45.275Z,1001.39
2017-03-17T03:15:45.290Z,1001.39
2017-03-17T03:16:45.305Z,1001.41
2017-03-17T03:17:45.322Z,1001.39
2017-03-17T03:18:45.339Z,1001.34
2017-03-17T03:19:45.353Z,1001.34
2017-03-17T03:20:45.366Z,1001.35
2017-03-17T03:21:45.380Z,1001.32
2017-03-17T03:22:45.398Z,1001.29
2017-03-17T03:23:45.412Z,1001.36
2017-03-17T03:24:45.428Z,1001.32
2017-03-17T03:25:45.443Z,1001.28
2017-03-17T03:26:45.458Z,1001.3
2017-03-17T03:27:45.473Z,1001.23
2017-03-17T03:28:45.490Z,1001.26
2017-03-17T03:29:45.503Z,1001.23
2017-03-17T03:30:45.517Z,1001.21
2017-03-17T03:31:45.533Z,1001.21
2017-03-17T03:32:45.547Z,1001.15
2017-03-17T03:33:45.563Z,1001.18
2017-03-17T03:34:45.577Z,1001.16
2017-03-17T03:35:45.595Z,1001.17
2017-03-17T03:36:45.608Z,1001.16
2017-03-17T03:37:45.623Z,1001.1
2017-03-17T03:38:45.639Z,1001.1
2017-03-17T03:39:45.655Z,1001.06
2017-03-17T03:40:45.670Z,1001.03
2017-03-17T03:41:45.685Z,1000.98
2017-03-17T03:42:45.700Z,1000.96
2017-03-17T03:43:45.715Z,1000.94
2017-03-17T03:44:45.729Z,1000.97
2017-03-17T03:45:45.745Z,1000.92
2017-03-17T03:46:45.761Z,1000.91
2017-03-17T03:47:45.776Z,1000.94
2017-03-17T03:48:45.792Z,1000.93
2017-03-17T03:49:45.806Z,1000.93
2017-03-17T03:50:45.819Z,1000.93
2017-03-17T03:51:45.837Z,1000.91
2017-03-17T03:52:45.850Z,1000.93
2017-03-17T03:53:45.865Z,1000.9
2017-03-17T03:54:45.879Z,1000.86
2017-03-17T03:55:45.894Z,1000.86
2017-03-17T03:56:45.911Z,1000.87
2017-03-17T03:57:45.925Z,1000.89
2017-03-17T03:58:45.942Z,1000.84
2017-03-17T03:59:45.955Z,1000.81
2017-03-17T04:00:45.970Z,1000.82
2017-03-17T04:01:45.985Z,1000.83
2017-03-17T04:02:46.002Z,1000.79
2017-03-17T04:03:46.016Z,1000.76
2017-03-17T04:04:46.032Z,1000.77
2017-03-17T04:05:46.047Z,1000.71
2017-03-17T04:06:46.062Z,1000.77
2017-03-17T04:07:46.077Z,1000.72
2017-03-17T04:08:46.093Z,1000.74
2017-03-17T04:09:46.107Z,1000.74
2017-03-17T04:10:46.122Z,1000.72
2017-03-17T04:11:46.137Z,1000.71
2017-03-17T04:12:46.152Z,1000.69
2017-03-17T04:13:46.167Z,1000.69
2017-03-17T04:14:46.182Z,1000.66
2017-03-17T04:15:46.196Z,1000.67
2017-03-17T04:16:46.211Z,1000.65
2017-03-17T04:17:46.227Z,1000.66
2017-03-17T04:18:46.242Z,1000.65
2017-03-17T04:19:46.257Z,1000.62
2017-03-17T04:20:46.270Z,1000.62
2017-03-17T04:21:46.286Z,1000.64
2017-03-17T04:22:46.303Z,1000.61
2017-03-17T04:23:46.316Z,1000.62
2017-03-17T04:24:46.331Z,1000.64
2017-03-17T04:25:46.345Z,1000.64
2017-03-17T04:26:46.360Z,1000.64
2017-03-17T04:27:46.381Z,1000.62
2017-03-17T04:28:46.390Z,1000.59
2017-03-17T04:29:46.406Z,1000.61
2017-03-17T04:30:46.420Z,1000.55
2017-03-17T04:31:46.440Z,1000.55
2017-03-17T04:32:46.450Z,1000.6
2017-03-17T04:33:46.466Z,1000.55
2017-03-17T04:34:46.480Z,1000.6
2017-03-17T04:35:46.495Z,1000.58
2017-03-17T04:36:46.508Z,1000.53
2017-03-17T04:37:46.526Z,1000.58
2017-03-17T04:38:46.541Z,1000.55
2017-03-17T04:39:46.555Z,1000.56
2017-03-17T04:40:46.570Z,1000.5
2017-03-17T04:41:46.585Z,1000.51
2017-03-17T04:42:46.599Z,1000.48
2017-03-17T04:43:46.615Z,1000.45
2017-03-17T04:44:46.629Z,1000.43
2017-03-17T04:45:46.644Z,1000.41
2017-03-17T04:46:46.659Z,1000.43
2017-03-17T04:47:46.673Z,1000.47
2017-03-17T04:48:46.688Z,1000.47
2017-03-17T04:49:46.703Z,1000.46
2017-03-17T04:50:46.718Z,1000.46
2017-03-17T04:51:46.732Z,1000.47
2017-03-17T04:52:46.748Z,1000.42
2017-03-17T04:53:46.892Z,1000.37
2017-03-17T04:54:46.892Z,1000.35
2017-03-17T04:55:47.020Z,1000.39
2017-03-17T04:56:46.832Z,1000.41
2017-03-17T04:57:46.840Z,1000.38
2017-03-17T04:58:46.847Z,1000.36
2017-03-17T04:59:46.850Z,1000.36
2017-03-17T05:00:47.016Z,1000.35
2017-03-17T05:01:47.002Z,1000.39
2017-03-17T05:02:47.012Z,1000.41
2017-03-17T05:03:47.021Z,1000.43
2017-03-17T05:04:47.019Z,1000.37
2017-03-17T05:05:47.049Z,1000.39
2017-03-17T05:06:47.061Z,1000.4
2017-03-17T05:07:47.067Z,1000.39
2017-03-17T05:08:47.078Z,1000.38
2017-03-17T05:09:47.092Z,1000.32
2017-03-17T05:10:47.101Z,1000.34
2017-03-17T05:11:47.110Z,1000.3
2017-03-17T05:12:47.121Z,1000.3
2017-03-17T05:13:47.142Z,1000.28
2017-03-17T05:14:47.150Z,1000.3
2017-03-17T05:15:47.158Z,1000.27
2017-03-17T05:16:47.166Z,1000.31
2017-03-17T05:17:47.174Z,1000.27
2017-03-17T05:18:47.175Z,1000.29
2017-03-17T05:19:47.184Z,1000.22
2017-03-17T05:20:47.262Z,1000.22
2017-03-17T05:21:47.179Z,1000.24
2017-03-17T05:22:47.191Z,1000.21
2017-03-17T05:23:47.208Z,1000.2
2017-03-17T05:24:47.223Z,1000.19
2017-03-17T05:25:47.236Z,1000.18
2017-03-17T05:26:47.250Z,1000.17
2017-03-17T05:27:47.266Z,1000.15
2017-03-17T05:28:47.280Z,1000.14
2017-03-17T05:29:47.294Z,1000.15
2017-03-17T05:30:47.314Z,1000.16
2017-03-17T05:31:47.325Z,1000.16
2017-03-17T05:32:47.338Z,1000.14
2017-03-17T05:33:47.353Z,1000.18
2017-03-17T05:34:47.369Z,1000.19
2017-03-17T05:35:47.385Z,1000.2
2017-03-17T05:36:47.399Z,1000.2
2017-03-17T05:37:47.415Z,1000.18
2017-03-17T05:38:47.429Z,1000.19
2017-03-17T05:39:47.446Z,1000.22
2017-03-17T05:40:47.482Z,1000.18
2017-03-17T05:41:47.473Z,1000.2
2017-03-17T05:42:47.488Z,1000.18
2017-03-17T05:43:47.504Z,1000.18
2017-03-17T05:44:47.518Z,1000.16
2017-03-17T05:45:47.531Z,1000.14
2017-03-17T05:46:47.547Z,1000.15
2017-03-17T05:47:47.560Z,1000.08
2017-03-17T05:48:47.576Z,1000.09
2017-03-17T05:49:47.591Z,1000.06
2017-03-17T05:50:47.603Z,1000.06
2017-03-17T05:51:47.619Z,1000.05
2017-03-17T05:52:47.635Z,1000
2017-03-17T05:53:47.649Z,999.99
2017-03-17T05:54:47.664Z,999.98
2017-03-17T05:55:47.681Z,999.97
2017-03-17T05:56:47.693Z,999.95
2017-03-17T05:57:47.708Z,999.99
2017-03-17T05:58:47.727Z,999.96
2017-03-17T05:59:47.736Z,999.96
2017-03-17T06:00:47.751Z,999.99
2017-03-17T06:01:47.768Z,1000
2017-03-17T06:02:47.781Z,999.97
2017-03-17T06:03:47.797Z,999.98
2017-03-17T06:04:47.810Z,999.95
2017-03-17T06:05:47.826Z,999.98
2017-03-17T06:06:47.841Z,999.98
2017-03-17T06:07:47.855Z,1000.02
2017-03-17T06:08:47.870Z,1000.02
2017-03-17T06:09:47.884Z,1000.03
2017-03-17T06:10:47.984Z,1000
2017-03-17T06:11:47.915Z,1000
2017-03-17T06:12:47.929Z,999.99
2017-03-17T06:13:47.944Z,1000.03
2017-03-17T06:14:47.958Z,1000.01
2017-03-17T06:15:47.972Z,1000
2017-03-17T06:16:47.987Z,999.97
2017-03-17T06:17:48.002Z,999.94
2017-03-17T06:18:48.016Z,999.91
2017-03-17T06:19:48.031Z,999.97
2017-03-17T06:20:48.046Z,999.98
2017-03-17T06:21:48.061Z,999.99
2017-03-17T06:22:48.076Z,999.99
2017-03-17T06:23:48.093Z,1000.02
2017-03-17T06:24:48.104Z,1000.01
2017-03-17T06:25:48.125Z,1000.03
2017-03-17T06:26:48.134Z,1000
2017-03-17T06:27:48.150Z,1000.07
2017-03-17T06:28:48.164Z,1000.01
2017-03-17T06:29:48.178Z,999.99
2017-03-17T06:30:48.195Z,1000.02
2017-03-17T06:31:48.209Z,1000.03
2017-03-17T06:32:48.223Z,1000.01
2017-03-17T06:33:48.248Z,1000.02
2017-03-17T06:34:48.252Z,999.99
2017-03-17T06:35:48.267Z,999.99
2017-03-17T06:36:48.282Z,1000
2017-03-17T06:37:48.296Z,999.98
2017-03-17T06:38:48.313Z,999.98
2017-03-17T06:39:48.325Z,999.99
2017-03-17T06:40:48.341Z,999.97
2017-03-17T06:41:48.357Z,999.99
2017-03-17T06:42:48.372Z,1000.01
2017-03-17T06:43:48.386Z,1000.02
2017-03-17T06:44:48.399Z,999.99
2017-03-17T06:45:48.415Z,1000.03
2017-03-17T06:46:48.429Z,999.97
2017-03-17T06:47:48.444Z,999.96
2017-03-17T06:48:48.464Z,999.91
2017-03-17T06:49:48.474Z,999.94
2017-03-17T06:50:48.487Z,999.88
2017-03-17T06:51:48.504Z,999.93
2017-03-17T06:52:48.518Z,999.96
2017-03-17T06:53:48.533Z,999.92
2017-03-17T06:54:48.548Z,999.87
2017-03-17T06:55:48.562Z,999.88
2017-03-17T06:56:48.577Z,999.89
2017-03-17T06:57:48.591Z,999.89
2017-03-17T06:58:48.608Z,999.9
2017-03-17T06:59:48.622Z,999.87
2017-03-17T07:00:48.637Z,999.87
2017-03-17T07:01:48.651Z,999.87
2017-03-17T07:02:48.666Z,999.86
2017-03-17T07:03:48.682Z,999.85
2017-03-17T07:04:48.696Z,999.9
2017-03-17T07:05:48.711Z,999.84
2017-03-17T07:06:48.725Z,999.87
2017-03-17T07:07:48.741Z,999.86
2017-03-17T07:08:48.756Z,999.9
2017-03-17T07:09:48.771Z,999.93
2017-03-17T07:10:48.786Z,999.87
2017-03-17T07:11:48.802Z,999.88
2017-03-17T07:12:48.819Z,999.86
2017-03-17T07:13:48.832Z,999.86
2017-03-17T07:14:48.847Z,999.88
2017-03-17T07:15:48.862Z,999.83
2017-03-17T07:16:48.876Z,999.89
2017-03-17T07:17:48.890Z,999.89
2017-03-17T07:18:48.906Z,999.93
2017-03-17T07:19:48.921Z,999.89
2017-03-17T07:20:48.936Z,999.87
2017-03-17T07:21:48.952Z,999.87
2017-03-17T07:22:48.965Z,999.9
2017-03-17T07:23:48.982Z,999.86
2017-03-17T07:24:48.997Z,999.88
2017-03-17T07:25:49.013Z,999.88
2017-03-17T07:26:49.028Z,999.86
2017-03-17T07:27:49.040Z,999.87
2017-03-17T07:28:49.057Z,999.85
2017-03-17T07:29:49.073Z,999.86
2017-03-17T07:30:49.085Z,999.89
2017-03-17T07:31:49.101Z,999.86
2017-03-17T07:32:49.118Z,999.89
2017-03-17T07:33:49.132Z,999.9
2017-03-17T07:34:49.148Z,1000.01
2017-03-17T07:35:49.163Z,999.99
2017-03-17T07:36:49.178Z,1000.01
2017-03-17T07:37:49.192Z,1000.05
2017-03-17T07:38:49.208Z,1000.08
2017-03-17T07:39:49.227Z,1000.09
2017-03-17T07:40:49.240Z,1000.11
2017-03-17T07:41:49.254Z,1000.1
2017-03-17T07:42:49.270Z,1000.13
2017-03-17T07:43:49.285Z,1000.12
2017-03-17T07:44:49.301Z,1000.12
2017-03-17T07:45:49.316Z,1000.1
2017-03-17T07:46:49.331Z,1000.15
2017-03-17T07:47:49.348Z,1000.15
2017-03-17T07:48:49.361Z,1000.07
2017-03-17T07:49:49.378Z,1000.09
2017-03-17T07:50:49.393Z,1000.11
2017-03-17T07:51:49.409Z,1000.09
2017-03-17T07:52:49.423Z,1000.08
2017-03-17T07:53:49.438Z,1000.07
2017-03-17T07:54:49.455Z,1000.11
2017-03-17T07:55:49.470Z,1000.09
2017-03-17T07:56:49.485Z,1000.06
2017-03-17T07:57:49.501Z,1000.06
2017-03-17T07:58:49.517Z,1000.06
2017-03-17T07:59:49.531Z,1000.02
2017-03-17T08:00:49.547Z,1000.03
2017-03-17T08:01:49.562Z,1000.04
2017-03-17T08:02:49.582Z,999.99
2017-03-17T08:03:49.595Z,999.93
2017-03-17T08:04:49.610Z,999.9
2017-03-17T08:05:49.625Z,999.92
2017-03-17T08:06:49.641Z,999.94
2017-03-17T08:07:49.657Z,999.95
2017-03-17T08:08:49.672Z,999.99
2017-03-17T08:09:49.688Z,999.99
2017-03-17T08:10:49.701Z,999.99
2017-03-17T08:11:49.721Z,1000
2017-03-17T08:12:49.735Z,1000.01
2017-03-17T08:13:49.751Z,1000.02
2017-03-17T08:14:49.766Z,1000.05
2017-03-17T08:15:49.783Z,1000.08
2017-03-17T08:16:49.798Z,1000.08
2017-03-17T08:17:49.815Z,1000.08
2017-03-17T08:18:49.830Z,1000.1
2017-03-17T08:19:49.847Z,1000.15
2017-03-17T08:20:49.865Z,1000.07
2017-03-17T08:21:49.878Z,1000.1
2017-03-17T08:22:49.894Z,1000.1
2017-03-17T08:23:49.910Z,1000.09
2017-03-17T08:24:49.928Z,1000.13
2017-03-17T08:25:49.943Z,1000.14
2017-03-17T08:26:49.957Z,1000.13
2017-03-17T08:27:49.976Z,1000.1
2017-03-17T08:28:49.990Z,1000.08
2017-03-17T08:29:50.007Z,1000.13
2017-03-17T08:30:50.023Z,1000.13
2017-03-17T08:31:50.039Z,1000.11
2017-03-17T08:32:50.054Z,1000.19
2017-03-17T08:33:50.070Z,1000.13
2017-03-17T08:34:50.087Z,1000.15
2017-03-17T08:35:50.103Z,1000.14
2017-03-17T08:36:50.120Z,1000.13
2017-03-17T08:37:50.134Z,1000.09
2017-03-17T08:38:50.152Z,1000.09
2017-03-17T08:39:50.167Z,1000.08
2017-03-17T08:40:50.184Z,1000.07
2017-03-17T08:41:50.200Z,1000.06
2017-03-17T08:42:50.217Z,1000.03
2017-03-17T08:43:50.233Z,999.99
2017-03-17T08:44:50.249Z,1000
2017-03-17T08:45:50.265Z,1000.01
2017-03-17T08:46:50.281Z,1000.01
2017-03-17T08:47:50.298Z,1000.02
2017-03-17T08:48:50.316Z,999.99
2017-03-17T08:49:50.331Z,999.97
2017-03-17T08:50:50.347Z,999.97
2017-03-17T08:51:50.367Z,999.93
2017-03-17T08:52:50.381Z,999.97
2017-03-17T08:53:50.399Z,999.98
2017-03-17T08:54:50.411Z,999.98
2017-03-17T08:55:50.429Z,999.96
2017-03-17T08:56:50.447Z,999.98
2017-03-17T08:57:50.469Z,999.98
2017-03-17T08:58:50.479Z,999.97
2017-03-17T08:59:50.497Z,999.93
2017-03-17T09:00:50.514Z,999.92
2017-03-17T09:01:50.527Z,999.97
2017-03-17T09:02:50.546Z,999.95
2017-03-17T09:03:50.561Z,999.95
2017-03-17T09:04:50.577Z,1000
2017-03-17T09:05:50.593Z,999.97
2017-03-17T09:06:50.610Z,999.97
2017-03-17T09:07:50.627Z,1000.03
2017-03-17T09:08:50.643Z,1000
2017-03-17T09:09:50.659Z,999.95
2017-03-17T09:10:50.676Z,1000.03
2017-03-17T09:11:50.695Z,999.99
2017-03-17T09:12:50.711Z,1000.01
2017-03-17T09:13:50.729Z,1000.02
2017-03-17T09:14:50.743Z,1000.01
2017-03-17T09:15:50.761Z,1000
2017-03-17T09:16:50.778Z,1000.02
2017-03-17T09:17:50.794Z,1000.04
2017-03-17T09:18:50.811Z,1000.02
2017-03-17T09:19:50.826Z,1000.03
2017-03-17T09:20:50.844Z,1000.01
2017-03-17T09:21:50.862Z,999.99
2017-03-17T09:22:50.878Z,1000.05
2017-03-17T09:23:50.893Z,1000
2017-03-17T09:24:50.913Z,1000.05
2017-03-17T09:25:50.929Z,1000.08
2017-03-17T09:26:50.947Z,1000.11
2017-03-17T09:27:50.961Z,1000.09
2017-03-17T09:28:50.978Z,1000.07
2017-03-17T09:29:50.998Z,1000.09
2017-03-17T09:30:51.012Z,1000.07
2017-03-17T09:31:51.028Z,1000.1
2017-03-17T09:32:51.046Z,1000.08
2017-03-17T09:33:51.064Z,1000.13
2017-03-17T09:34:51.086Z,1000.13
2017-03-17T09:35:51.097Z,1000.14
2017-03-17T09:36:51.114Z,1000.09
2017-03-17T09:37:51.131Z,1000.15
2017-03-17T09:38:51.148Z,1000.14
2017-03-17T09:39:51.164Z,1000.16
2017-03-17T09:40:51.182Z,1000.17
2017-03-17T09:41:51.199Z,1000.18
2017-03-17T09:42:51.215Z,1000.2
2017-03-17T09:43:51.233Z,1000.15
2017-03-17T09:44:51.251Z,1000.19
2017-03-17T09:45:51.268Z,1000.19
2017-03-17T09:46:51.283Z,1000.19
2017-03-17T09:47:51.301Z,1000.09
2017-03-17T09:48:51.320Z,1000.14
2017-03-17T09:49:51.335Z,1000.15
2017-03-17T09:50:51.353Z,1000.14
2017-03-17T09:51:51.370Z,1000.16
2017-03-17T09:52:51.387Z,1000.13
2017-03-17T09:53:51.405Z,1000.1
2017-03-17T09:54:51.423Z,1000.12
2017-03-17T09:55:51.438Z,1000.12
2017-03-17T09:56:51.457Z,1000.1
2017-03-17T09:57:51.476Z,1000.18
2017-03-17T09:58:51.492Z,1000.1
2017-03-17T09:59:51.508Z,1000.12
2017-03-17T10:00:51.526Z,1000.09
2017-03-17T10:01:51.542Z,1000.09
2017-03-17T10:02:51.560Z,1000.05
2017-03-17T10:03:51.578Z,1000.01
2017-03-17T10:04:51.597Z,1000.04
2017-03-17T10:05:51.613Z,1000.06
2017-03-17T10:06:51.630Z,1000.03
2017-03-17T10:07:51.647Z,1000.04
2017-03-17T10:08:51.666Z,1000.03
2017-03-17T10:09:51.684Z,999.99
2017-03-17T10:10:51.701Z,1000.04
2017-03-17T10:11:51.718Z,999.97
2017-03-17T10:12:51.735Z,999.98
2017-03-17T10:13:51.755Z,999.89
2017-03-17T10:14:51.773Z,999.93
2017-03-17T10:15:51.789Z,999.92
2017-03-17T10:16:51.806Z,999.86
2017-03-17T10:17:51.824Z,999.89
2017-03-17T10:18:51.841Z,999.86
2017-03-17T10:19:51.860Z,999.84
2017-03-17T10:20:51.877Z,999.83
2017-03-17T10:21:51.896Z,999.79
2017-03-17T10:22:51.914Z,999.81
2017-03-17T10:23:51.932Z,999.73
2017-03-17T10:24:51.955Z,999.68
2017-03-17T10:25:51.969Z,999.73
2017-03-17T10:26:52.008Z,999.63
2017-03-17T10:27:52.004Z,999.61
2017-03-17T10:28:52.023Z,999.57
2017-03-17T10:29:52.039Z,999.54
2017-03-17T10:30:52.058Z,999.52
2017-03-17T10:31:52.075Z,999.47
2017-03-17T10:32:52.093Z,999.39
2017-03-17T10:33:52.111Z,999.5
2017-03-17T10:34:52.130Z,999.47
2017-03-17T10:35:52.149Z,999.47
2017-03-17T10:36:52.166Z,999.44
2017-03-17T10:37:52.186Z,999.45
2017-03-17T10:38:52.203Z,999.45
2017-03-17T10:39:52.223Z,999.45
2017-03-17T10:40:52.239Z,999.45
2017-03-17T10:41:52.258Z,999.41
2017-03-17T10:42:52.276Z,999.44
2017-03-17T10:43:52.302Z,999.39
2017-03-17T10:44:52.314Z,999.35
2017-03-17T10:45:52.333Z,999.36
2017-03-17T10:46:52.373Z,999.4
2017-03-17T10:47:52.376Z,999.32
2017-03-17T10:48:52.389Z,999.31
2017-03-17T10:49:52.407Z,999.41
2017-03-17T10:50:52.424Z,999.36
2017-03-17T10:51:52.443Z,999.44
2017-03-17T10:52:52.462Z,999.36
2017-03-17T10:53:52.481Z,999.4
2017-03-17T10:54:52.501Z,999.46
2017-03-17T10:55:52.517Z,999.43
2017-03-17T10:56:52.536Z,999.41
2017-03-17T10:57:52.556Z,999.44
2017-03-17T10:58:52.574Z,999.43
2017-03-17T10:59:52.593Z,999.36
2017-03-17T11:00:52.611Z,999.34
2017-03-17T11:01:52.630Z,999.35
2017-03-17T11:02:52.649Z,999.37
2017-03-17T11:03:52.667Z,999.33
2017-03-17T11:04:52.688Z,999.36
2017-03-17T11:05:52.705Z,999.41
2017-03-17T11:06:52.724Z,999.42
2017-03-17T11:07:52.743Z,999.37
2017-03-17T11:08:52.763Z,999.34
2017-03-17T11:09:52.781Z,999.34
2017-03-17T11:10:52.799Z,999.25
2017-03-17T11:11:52.819Z,999.29
2017-03-17T11:12:52.837Z,999.28
2017-03-17T11:13:52.856Z,999.21
2017-03-17T11:14:52.876Z,999.25
2017-03-17T11:15:52.894Z,999.27
2017-03-17T11:16:52.912Z,999.26
2017-03-17T11:17:52.932Z,999.25
2017-03-17T11:18:52.950Z,999.23
2017-03-17T11:19:52.970Z,999.31
2017-03-17T11:20:52.989Z,999.23
2017-03-17T11:21:53.008Z,999.26
2017-03-17T11:22:53.027Z,999.31
2017-03-17T11:23:53.047Z,999.3
2017-03-17T11:24:53.065Z,999.36
2017-03-17T11:25:53.084Z,999.36
2017-03-17T11:26:53.105Z,999.3
2017-03-17T11:27:53.121Z,999.35
2017-03-17T11:28:53.144Z,999.39
2017-03-17T11:29:53.161Z,999.34
2017-03-17T11:30:53.181Z,999.39
2017-03-17T11:31:53.198Z,999.32
2017-03-17T11:32:53.217Z,999.31
2017-03-17T11:33:53.238Z,999.32
2017-03-17T11:34:53.256Z,999.2
2017-03-17T11:35:53.274Z,999.16
2017-03-17T11:36:53.295Z,999.24
2017-03-17T11:37:53.313Z,999.26
2017-03-17T11:38:53.332Z,999.15
2017-03-17T11:39:53.353Z,999.2
2017-03-17T11:40:53.371Z,999.17
2017-03-17T11:41:53.394Z,999.17
2017-03-17T11:42:53.410Z,999.09
2017-03-17T11:43:53.429Z,999.15
2017-03-17T11:44:53.448Z,999.1
2017-03-17T11:45:53.469Z,999.01
2017-03-17T11:46:53.486Z,999.08
2017-03-17T11:47:53.507Z,999.1
2017-03-17T11:48:53.527Z,999.12
2017-03-17T11:49:53.546Z,999.13
2017-03-17T11:50:53.583Z,999.01
2017-03-17T11:51:53.585Z,999.02
2017-03-17T11:52:53.603Z,999.03
2017-03-17T11:53:53.623Z,999.02
2017-03-17T11:54:53.642Z,999.04
2017-03-17T11:55:53.663Z,999.12
2017-03-17T11:56:53.683Z,999.11
2017-03-17T11:57:53.702Z,999.09
2017-03-17T11:58:53.724Z,999.17
2017-03-17T11:59:53.742Z,999.1
2017-03-17T12:00:53.761Z,999.05
2017-03-17T12:01:53.780Z,999.09
2017-03-17T12:02:53.801Z,999.07
2017-03-17T12:03:53.822Z,999.03
2017-03-17T12:04:53.842Z,999.06
2017-03-17T12:05:53.861Z,999.05
2017-03-17T12:06:53.880Z,999.06
2017-03-17T12:07:53.899Z,999.05
2017-03-17T12:08:53.918Z,999.09
2017-03-17T12:09:53.940Z,999.07
2017-03-17T12:10:53.961Z,999.07
2017-03-17T12:11:53.978Z,999.13
2017-03-17T12:12:54.000Z,999.19
2017-03-17T12:13:54.019Z,999.2
2017-03-17T12:14:54.039Z,999.21
2017-03-17T12:15:54.059Z,999.18